Time;durP1;ratioP1;P1;durP2;ratioP2;P2;SDS_P1;SDS_P2;PMS_P1;PMS_P2;Temp;Humidity;BMP_temperature;BMP_pressure;BME280_temperature;BME280_humidity;BME280_pressure;Samples;Min_cycle;Max_cycle;Signal;HPM_P1;HPM_P2
2023/08/30 00:00:18;;;;;;;2.90;2.70;;;17.40;99.90;;;;;;5032768;28;20542;-71
2023/08/30 00:02:44;;;;;;;5.27;3.13;;;17.40;99.90;;;;;;5033341;28;20235;-73
2023/08/30 00:05:10;;;;;;;3.57;3.20;;;17.40;99.90;;;;;;5045253;28;20478;-71
2023/08/30 00:07:36;;;;;;;3.47;3.03;;;17.40;99.90;;;;;;5044128;28;20808;-73
2023/08/30 00:10:03;;;;;;;3.27;2.97;;;17.40;99.90;;;;;;5016022;28;20235;-73
2023/08/30 00:12:29;;;;;;;3.97;2.90;;;17.40;99.90;;;;;;5032553;28;20466;-72
2023/08/30 00:14:55;;;;;;;3.10;2.80;;;17.40;99.90;;;;;;5033976;28;20466;-73
2023/08/30 00:17:22;;;;;;;3.23;2.90;;;17.40;99.90;;;;;;5030527;28;20466;-74
2023/08/30 00:19:48;;;;;;;3.93;3.10;;;17.40;99.90;;;;;;5031042;28;20481;-72
2023/08/30 00:22:14;;;;;;;3.40;3.10;;;17.40;99.90;;;;;;5047438;28;20481;-73
2023/08/30 00:24:40;;;;;;;3.80;3.40;;;17.40;99.90;;;;;;5043965;28;20466;-73
2023/08/30 00:27:06;;;;;;;3.10;2.90;;;17.40;99.90;;;;;;5015746;28;20631;-73
2023/08/30 00:29:32;;;;;;;3.53;3.23;;;17.40;99.90;;;;;;5044771;28;20803;-74
2023/08/30 00:31:57;;;;;;;3.33;2.53;;;17.40;99.90;;;;;;5015661;28;20580;-73
2023/08/30 00:34:23;;;;;;;3.47;2.97;;;17.40;99.90;;;;;;5043846;28;20251;-73
2023/08/30 00:36:49;;;;;;;5.27;2.83;;;17.40;99.90;;;;;;5043552;28;20223;-73
2023/08/30 00:39:14;;;;;;;3.73;3.13;;;17.40;99.90;;;;;;5031243;28;20953;-72
2023/08/30 00:41:40;;;;;;;3.60;3.30;;;17.40;99.90;;;;;;5031701;28;20705;-73
2023/08/30 00:44:06;;;;;;;3.80;3.40;;;17.30;99.90;;;;;;5047193;28;20350;-72
2023/08/30 00:46:35;;;;;;;3.50;3.20;;;17.30;99.90;;;;;;5014123;28;20472;-73
2023/08/30 00:49:02;;;;;;;3.60;3.30;;;17.30;99.90;;;;;;5031334;28;20334;-72
2023/08/30 00:51:28;;;;;;;5.40;3.50;;;17.30;99.90;;;;;;5032957;28;20968;-73
2023/08/30 00:53:59;;;;;;;3.73;3.27;;;17.30;99.90;;;;;;5029243;28;21031;-73
2023/08/30 00:56:27;;;;;;;4.73;3.57;;;17.30;99.90;;;;;;5044942;28;20555;-73
2023/08/30 00:58:54;;;;;;;4.40;4.00;;;17.30;99.90;;;;;;5062882;28;20489;-72
2023/08/30 01:01:20;;;;;;;4.43;3.60;;;17.30;99.90;;;;;;5044189;28;20577;-73
2023/08/30 01:03:45;;;;;;;4.77;3.67;;;17.30;99.90;;;;;;5043917;28;20489;-73
2023/08/30 01:06:13;;;;;;;3.57;3.27;;;17.30;99.90;;;;;;5031265;28;20651;-72
2023/08/30 01:08:41;;;;;;;3.07;2.87;;;17.30;99.90;;;;;;5048146;28;20474;-73
2023/08/30 01:11:24;;;;;;;3.33;3.03;;;17.20;99.90;;;;;;5031967;28;20462;-73
2023/08/30 01:13:55;;;;;;;3.70;3.40;;;17.20;99.90;;;;;;5030676;28;20477;-73
2023/08/30 01:16:24;;;;;;;3.70;3.40;;;17.20;99.90;;;;;;5031818;28;20561;-73
2023/08/30 01:18:56;;;;;;;4.03;3.60;;;17.20;99.90;;;;;;5015174;28;20547;-70
2023/08/30 01:21:38;;;;;;;3.27;2.97;;;17.20;99.90;;;;;;5045694;28;20494;-72
2023/08/30 01:24:09;;;;;;;4.27;3.47;;;17.10;99.90;;;;;;5033417;28;20547;-73
2023/08/30 01:26:48;;;;;;;5.10;3.37;;;17.10;99.90;;;;;;5043703;28;20503;-72
2023/08/30 01:29:18;;;;;;;4.10;3.73;;;17.10;99.90;;;;;;5055948;28;20477;-73
2023/08/30 01:31:46;;;;;;;3.73;3.43;;;17.10;99.90;;;;;;5028411;28;20560;-72
2023/08/30 01:34:13;;;;;;;4.87;3.77;;;17.10;99.90;;;;;;5031868;28;20466;-72
2023/08/30 01:36:42;;;;;;;3.67;3.37;;;17.10;99.90;;;;;;5012931;28;20474;-72
2023/08/30 01:39:10;;;;;;;4.60;4.20;;;17.10;99.90;;;;;;5031270;28;20474;-73
2023/08/30 01:41:37;;;;;;;9.17;4.47;;;17.10;99.90;;;;;;5029149;28;20674;-73
2023/08/30 01:44:05;;;;;;;5.23;4.53;;;17.10;99.90;;;;;;5014847;28;20480;-73
2023/08/30 01:46:33;;;;;;;4.13;3.73;;;17.00;99.90;;;;;;5026553;28;20501;-72
2023/08/30 01:49:01;;;;;;;4.40;4.00;;;17.00;99.90;;;;;;5029430;28;20470;-71
2023/08/30 01:51:28;;;;;;;7.13;3.90;;;17.00;99.90;;;;;;5030732;28;20474;-73
2023/08/30 01:53:55;;;;;;;4.43;4.03;;;17.10;99.90;;;;;;5061719;28;20466;-73
2023/08/30 01:56:21;;;;;;;4.37;3.97;;;17.10;99.90;;;;;;5030546;28;20473;-72
2023/08/30 01:58:47;;;;;;;4.60;4.20;;;17.10;99.90;;;;;;5039398;28;20652;-73
2023/08/30 02:01:13;;;;;;;4.87;4.30;;;17.10;99.90;;;;;;5029610;28;20219;-72
2023/08/30 02:03:39;;;;;;;4.67;4.20;;;17.10;99.90;;;;;;5043090;28;20293;-72
2023/08/30 02:06:16;;;;;;;5.97;4.67;;;17.10;99.90;;;;;;5030825;28;21074;-73
2023/08/30 02:08:51;;;;;;;6.77;4.40;;;17.10;99.90;;;;;;5061018;28;20231;-72
2023/08/30 02:11:23;;;;;;;5.20;4.70;;;17.10;99.90;;;;;;5042953;28;20469;-72
2023/08/30 02:13:50;;;;;;;6.80;4.67;;;17.10;99.90;;;;;;5029606;28;20563;-73
2023/08/30 02:16:18;;;;;;;6.50;4.23;;;17.10;99.90;;;;;;5043566;28;20462;-72
2023/08/30 02:18:44;;;;;;;8.40;4.53;;;17.10;99.90;;;;;;5028422;28;20494;-73
2023/08/30 02:21:10;;;;;;;4.90;4.23;;;17.00;99.90;;;;;;5030008;28;20484;-74
2023/08/30 02:23:36;;;;;;;5.50;4.20;;;17.10;99.90;;;;;;5062090;28;20918;-71
2023/08/30 02:26:05;;;;;;;4.10;3.70;;;17.00;99.90;;;;;;5028316;28;20220;-72
2023/08/30 02:28:31;;;;;;;5.40;4.67;;;17.00;99.90;;;;;;5044240;28;20462;-72
2023/08/30 02:30:56;;;;;;;5.83;3.97;;;17.00;99.90;;;;;;5042523;28;20588;-73
2023/08/30 02:33:22;;;;;;;5.43;3.73;;;17.00;99.90;;;;;;5061313;28;20262;-72
2023/08/30 02:35:47;;;;;;;7.13;4.40;;;17.00;99.90;;;;;;5041454;28;20219;-73
2023/08/30 02:38:13;;;;;;;6.70;4.50;;;17.00;99.90;;;;;;5043584;28;20320;-73
2023/08/30 02:40:40;;;;;;;7.10;5.20;;;17.00;99.90;;;;;;5029445;28;20682;-73
2023/08/30 02:43:07;;;;;;;4.23;3.87;;;17.00;99.90;;;;;;5029996;28;20466;-73
2023/08/30 02:45:32;;;;;;;5.60;4.50;;;16.90;99.90;;;;;;5030261;28;21053;-73
2023/08/30 02:47:58;;;;;;;4.80;4.40;;;16.90;99.90;;;;;;5013859;28;20232;-73
2023/08/30 02:50:25;;;;;;;5.37;4.87;;;16.90;99.90;;;;;;5059918;28;20223;-72
2023/08/30 02:52:52;;;;;;;5.27;4.07;;;16.90;99.90;;;;;;5030615;28;20910;-70
2023/08/30 02:55:17;;;;;;;6.60;4.00;;;16.90;99.90;;;;;;5011345;28;20308;-73
2023/08/30 02:57:43;;;;;;;4.43;4.00;;;16.90;99.90;;;;;;5014192;28;21070;-73
2023/08/30 03:00:09;;;;;;;5.43;4.27;;;16.80;99.90;;;;;;5029122;28;20231;-72
2023/08/30 03:02:35;;;;;;;4.00;3.60;;;16.80;99.90;;;;;;5028931;28;20231;-73
2023/08/30 03:05:04;;;;;;;4.87;4.47;;;16.80;99.90;;;;;;5043380;28;20438;-71
2023/08/30 03:07:30;;;;;;;5.57;4.60;;;16.90;99.90;;;;;;5029715;28;20983;-72
2023/08/30 03:09:55;;;;;;;6.03;4.37;;;16.90;99.90;;;;;;5028594;28;20454;-73
2023/08/30 03:12:21;;;;;;;5.50;4.80;;;16.90;99.90;;;;;;5045536;28;20304;-73
2023/08/30 03:14:47;;;;;;;4.93;4.50;;;16.90;99.90;;;;;;5029754;28;20228;-72
2023/08/30 03:17:13;;;;;;;4.23;3.83;;;16.90;99.90;;;;;;5029330;28;20227;-72
2023/08/30 03:19:38;;;;;;;6.40;4.17;;;16.90;99.90;;;;;;5030005;28;20477;-71
2023/08/30 03:22:04;;;;;;;6.47;4.77;;;16.90;99.90;;;;;;5045733;28;20269;-73
2023/08/30 03:24:30;;;;;;;4.80;4.10;;;16.90;99.90;;;;;;5027909;28;20739;-72
2023/08/30 03:26:56;;;;;;;3.90;3.60;;;16.80;99.90;;;;;;5027861;28;20223;-72
2023/08/30 03:29:22;;;;;;;4.87;4.13;;;16.80;99.90;;;;;;5030015;28;20509;-72
2023/08/30 03:31:48;;;;;;;6.57;4.90;;;16.80;99.90;;;;;;5009600;28;20216;-73
2023/08/30 03:34:13;;;;;;;5.30;4.40;;;16.90;99.90;;;;;;5029818;28;20215;-74
2023/08/30 03:36:43;;;;;;;4.93;4.50;;;16.80;99.90;;;;;;5060365;28;20235;-74
2023/08/30 03:39:09;;;;;;;5.20;4.63;;;16.80;99.90;;;;;;5058618;28;20665;-73
2023/08/30 03:41:35;;;;;;;5.73;4.43;;;16.80;99.90;;;;;;5028583;28;20481;-73
2023/08/30 03:44:01;;;;;;;5.73;4.70;;;16.80;99.90;;;;;;5030318;28;20224;-73
2023/08/30 03:46:27;;;;;;;5.27;4.50;;;16.80;99.90;;;;;;5045253;28;20991;-71
2023/08/30 03:48:53;;;;;;;6.00;4.40;;;16.80;99.90;;;;;;5015280;28;20274;-73
2023/08/30 03:51:18;;;;;;;9.33;5.80;;;16.70;99.90;;;;;;5046582;28;20347;-72
2023/08/30 03:53:45;;;;;;;5.40;4.70;;;16.70;99.90;;;;;;5032552;28;20247;-72
2023/08/30 03:56:11;;;;;;;6.73;5.40;;;16.70;99.90;;;;;;5034468;28;20660;-73
2023/08/30 03:58:37;;;;;;;6.87;4.63;;;16.60;99.90;;;;;;5056761;28;20469;-72
2023/08/30 04:01:03;;;;;;;5.40;4.17;;;16.60;99.90;;;;;;5031704;28;20481;-73
2023/08/30 04:03:29;;;;;;;5.10;4.00;;;16.60;99.90;;;;;;5059961;28;20474;-73
2023/08/30 04:05:58;;;;;;;6.13;5.00;;;16.60;99.90;;;;;;5028458;28;20251;-72
2023/08/30 04:08:23;;;;;;;4.93;3.90;;;16.60;99.90;;;;;;5031522;28;20600;-72
2023/08/30 04:10:52;;;;;;;8.87;4.60;;;16.60;99.90;;;;;;5062419;28;20469;-74
2023/08/30 04:13:18;;;;;;;4.77;4.00;;;16.50;99.90;;;;;;5031754;28;20305;-73
2023/08/30 04:15:43;;;;;;;5.13;4.63;;;16.50;99.90;;;;;;5031503;28;20501;-73
2023/08/30 04:18:09;;;;;;;6.87;5.20;;;16.50;99.90;;;;;;5045790;28;20307;-73
2023/08/30 04:20:35;;;;;;;5.80;4.80;;;16.60;99.90;;;;;;5045098;28;20469;-73
2023/08/30 04:23:02;;;;;;;7.03;4.60;;;16.50;99.90;;;;;;5032047;28;20243;-73
2023/08/30 04:25:33;;;;;;;4.80;4.30;;;16.50;99.90;;;;;;5028228;28;20216;-74
2023/08/30 04:28:00;;;;;;;5.80;4.97;;;16.50;99.90;;;;;;5033564;28;20464;-73
2023/08/30 04:30:26;;;;;;;5.17;4.30;;;16.50;99.90;;;;;;5047054;28;20532;-73
2023/08/30 04:32:51;;;;;;;6.00;5.43;;;16.60;99.90;;;;;;5029560;28;20803;-72
2023/08/30 04:35:17;;;;;;;5.63;4.93;;;16.50;99.90;;;;;;5014990;28;20235;-72
2023/08/30 04:37:43;;;;;;;6.50;4.40;;;16.50;99.90;;;;;;5014002;28;20247;-73
2023/08/30 04:40:09;;;;;;;6.10;4.77;;;16.40;99.90;;;;;;5032706;28;20232;-73
2023/08/30 04:42:36;;;;;;;4.93;4.47;;;16.40;99.90;;;;;;5029390;28;20239;-73
2023/08/30 04:45:02;;;;;;;6.10;4.80;;;16.40;99.90;;;;;;5031682;28;20465;-73
2023/08/30 04:47:29;;;;;;;6.93;5.10;;;16.30;99.90;;;;;;5047991;28;20457;-72
2023/08/30 04:49:56;;;;;;;5.60;5.10;;;16.30;99.90;;;;;;5044398;28;20474;-73
2023/08/30 04:52:22;;;;;;;6.23;5.03;;;16.20;99.90;;;;;;5032809;28;20489;-73
2023/08/30 04:54:49;;;;;;;5.70;5.10;;;16.20;99.90;;;;;;5061165;28;21180;-70
2023/08/30 04:57:16;;;;;;;5.43;4.93;;;16.20;99.90;;;;;;5061209;28;20547;-73
2023/08/30 04:59:43;;;;;;;6.33;4.53;;;16.20;99.90;;;;;;5023054;28;20344;-73
2023/08/30 05:02:09;;;;;;;5.70;5.10;;;16.20;99.90;;;;;;5025246;28;20995;-74
2023/08/30 05:04:42;;;;;;;5.83;4.60;;;16.10;99.90;;;;;;5041038;28;20466;-74
2023/08/30 05:07:07;;;;;;;5.07;4.57;;;16.10;99.90;;;;;;5027696;28;20462;-73
2023/08/30 05:09:34;;;;;;;5.33;4.83;;;16.10;99.90;;;;;;5040479;28;20230;-72
2023/08/30 05:12:00;;;;;;;4.60;4.20;;;16.10;99.90;;;;;;5027540;28;20462;-74
2023/08/30 05:14:26;;;;;;;6.80;4.40;;;16.10;99.90;;;;;;5040790;28;20516;-72
2023/08/30 05:16:52;;;;;;;5.87;4.80;;;16.00;99.90;;;;;;5028030;28;21050;-74
2023/08/30 05:19:18;;;;;;;8.33;5.40;;;16.00;99.90;;;;;;5028093;28;20222;-74
2023/08/30 05:21:44;;;;;;;5.63;4.60;;;16.00;99.90;;;;;;5024285;28;20312;-72
2023/08/30 05:24:11;;;;;;;7.63;5.03;;;16.00;99.90;;;;;;5056959;28;20234;-72
2023/08/30 05:26:36;;;;;;;5.20;4.70;;;16.00;99.90;;;;;;5028484;28;20592;-72
2023/08/30 05:29:03;;;;;;;5.10;4.60;;;16.00;99.90;;;;;;5028827;28;20482;-72
2023/08/30 05:31:28;;;;;;;5.20;4.70;;;16.00;99.90;;;;;;5029155;28;20219;-72
2023/08/30 05:34:08;;;;;;;5.83;5.20;;;16.00;99.90;;;;;;5027594;28;20470;-74
2023/08/30 05:37:00;;;;;;;5.83;5.33;;;16.00;99.90;;;;;;5024246;28;20473;-72
2023/08/30 05:39:49;;;;;;;5.10;4.70;;;16.00;99.90;;;;;;5026257;28;20586;-73
2023/08/30 05:42:14;;;;;;;8.07;7.27;;;16.10;99.90;;;;;;5039733;28;21150;-73
2023/08/30 05:44:40;;;;;;;5.60;5.00;;;16.10;99.90;;;;;;4997938;28;21053;-72
2023/08/30 05:47:06;;;;;;;5.43;4.40;;;16.10;99.90;;;;;;4982355;28;20219;-72
2023/08/30 05:49:31;;;;;;;5.80;4.63;;;16.10;99.90;;;;;;4985723;28;20375;-73
2023/08/30 05:51:57;;;;;;;5.40;4.47;;;16.10;99.90;;;;;;5004891;28;20215;-71
2023/08/30 05:54:23;;;;;;;4.83;4.33;;;16.20;99.90;;;;;;5003672;28;20224;-73
2023/08/30 05:56:50;;;;;;;6.73;5.40;;;16.20;99.90;;;;;;4977378;28;20234;-72
2023/08/30 05:59:16;;;;;;;4.77;4.17;;;16.10;99.90;;;;;;4991758;28;20482;-72
2023/08/30 06:01:42;;;;;;;5.43;4.90;;;16.10;99.90;;;;;;4988071;28;20247;-72
2023/08/30 06:04:07;;;;;;;6.00;5.40;;;16.10;99.90;;;;;;4993536;28;20579;-73
2023/08/30 06:06:33;;;;;;;5.53;4.97;;;16.10;99.90;;;;;;5001858;28;20235;-73
2023/08/30 06:08:59;;;;;;;4.90;4.47;;;16.10;99.90;;;;;;4992312;28;20428;-73
2023/08/30 06:11:25;;;;;;;7.63;4.97;;;16.10;99.90;;;;;;4988807;28;20234;-72
2023/08/30 06:13:50;;;;;;;5.70;4.77;;;16.10;99.90;;;;;;4992542;28;20466;-73
2023/08/30 06:16:16;;;;;;;5.80;5.20;;;16.10;99.90;;;;;;5003480;28;21069;-72
2023/08/30 06:18:41;;;;;;;5.80;5.27;;;16.10;99.90;;;;;;4993483;28;20679;-72
2023/08/30 06:21:07;;;;;;;5.37;4.70;;;16.10;99.90;;;;;;5024224;28;20949;-72
2023/08/30 06:23:34;;;;;;;5.30;4.50;;;16.10;99.90;;;;;;5020083;28;20242;-72
2023/08/30 06:26:00;;;;;;;4.70;4.23;;;16.10;99.90;;;;;;5021155;28;20223;-73
2023/08/30 06:28:26;;;;;;;8.43;4.50;;;16.10;99.90;;;;;;5020580;28;20512;-72
2023/08/30 06:30:51;;;;;;;5.87;4.60;;;16.10;99.90;;;;;;5019006;28;20489;-72
2023/08/30 06:33:17;;;;;;;5.57;4.83;;;16.10;99.90;;;;;;5024003;28;20288;-71
2023/08/30 06:35:47;;;;;;;5.53;4.50;;;16.20;99.90;;;;;;5019542;28;20265;-70
2023/08/30 06:38:13;;;;;;;6.83;4.90;;;16.20;99.90;;;;;;5005729;28;20830;-70
2023/08/30 06:40:46;;;;;;;5.27;4.40;;;16.20;99.90;;;;;;5017515;28;20474;-72
2023/08/30 06:43:12;;;;;;;5.77;4.50;;;16.20;99.90;;;;;;5022275;28;20291;-71
2023/08/30 06:45:42;;;;;;;4.77;4.23;;;16.20;99.90;;;;;;5049322;28;20477;-72
2023/08/30 06:48:07;;;;;;;5.10;4.50;;;16.20;99.90;;;;;;5032760;28;20466;-72
2023/08/30 06:50:33;;;;;;;5.60;4.80;;;16.30;99.90;;;;;;5019933;28;20565;-72
2023/08/30 06:52:59;;;;;;;5.33;4.80;;;16.30;99.90;;;;;;5023002;28;20222;-73
2023/08/30 06:55:25;;;;;;;7.00;5.07;;;16.30;99.90;;;;;;5045947;28;20478;-72
2023/08/30 06:57:51;;;;;;;6.37;4.90;;;16.30;99.90;;;;;;5023671;28;20230;-72
2023/08/30 07:00:17;;;;;;;7.67;6.40;;;16.30;99.90;;;;;;5023015;28;20227;-72
2023/08/30 07:02:46;;;;;;;5.93;5.00;;;16.30;99.90;;;;;;5019582;28;20239;-72
2023/08/30 07:05:13;;;;;;;5.23;4.47;;;16.30;99.90;;;;;;5023782;28;20511;-71
2023/08/30 07:07:39;;;;;;;6.13;4.80;;;16.30;99.90;;;;;;5014658;28;20525;-71
2023/08/30 07:10:05;;;;;;;8.03;6.23;;;16.30;99.90;;;;;;5034500;28;20478;-72
2023/08/30 07:12:31;;;;;;;6.60;5.50;;;16.40;99.90;;;;;;5001598;28;21056;-72
2023/08/30 07:14:56;;;;;;;8.60;6.00;;;16.40;99.90;;;;;;5035472;28;20474;-72
2023/08/30 07:17:22;;;;;;;6.57;5.80;;;16.40;99.90;;;;;;5021928;28;20968;-73
2023/08/30 07:19:49;;;;;;;10.10;6.23;;;16.40;99.90;;;;;;5026963;28;20689;-72
2023/08/30 07:22:18;;;;;;;8.73;7.33;;;16.40;99.90;;;;;;5062718;28;20220;-72
2023/08/30 07:24:45;;;;;;;8.43;6.40;;;16.50;99.90;;;;;;5032072;28;20577;-72
2023/08/30 07:27:12;;;;;;;7.50;6.37;;;16.50;99.90;;;;;;5032344;28;20481;-72
2023/08/30 07:29:40;;;;;;;7.10;6.17;;;16.60;99.90;;;;;;5028808;28;20899;-72
2023/08/30 07:32:07;;;;;;;8.30;6.97;;;16.70;99.90;;;;;;5029147;28;20462;-73
2023/08/30 07:34:33;;;;;;;7.50;6.77;;;16.70;99.90;;;;;;5033499;28;20470;-71
2023/08/30 07:36:59;;;;;;;9.00;7.30;;;16.70;99.90;;;;;;5063175;28;20464;-72
2023/08/30 07:39:24;;;;;;;10.47;6.90;;;16.70;99.90;;;;;;5022744;28;20721;-73
2023/08/30 07:41:50;;;;;;;6.93;6.20;;;16.70;99.90;;;;;;4983847;28;20485;-73
2023/08/30 07:44:16;;;;;;;6.40;5.80;;;16.70;99.90;;;;;;5000894;28;20335;-72
2023/08/30 07:46:42;;;;;;;8.03;7.23;;;16.70;99.90;;;;;;4998812;28;20852;-73
2023/08/30 07:49:07;;;;;;;7.73;6.90;;;16.80;99.90;;;;;;4992200;28;20228;-73
2023/08/30 07:51:33;;;;;;;8.93;6.60;;;16.80;99.90;;;;;;5007258;28;20228;-73
2023/08/30 07:53:59;;;;;;;9.90;6.80;;;16.90;99.90;;;;;;5017247;28;20227;-74
2023/08/30 07:56:25;;;;;;;6.77;6.07;;;16.90;99.90;;;;;;5050620;28;20293;-72
2023/08/30 07:58:51;;;;;;;6.47;5.47;;;16.90;99.90;;;;;;5023962;28;20310;-72
2023/08/30 08:01:17;;;;;;;5.90;5.30;;;17.00;99.90;;;;;;5007264;28;21105;-73
2023/08/30 08:03:42;;;;;;;7.97;6.30;;;17.00;99.90;;;;;;5021968;28;20336;-75
2023/08/30 08:06:08;;;;;;;6.60;5.90;;;17.00;99.90;;;;;;5037038;28;20239;-73
2023/08/30 08:08:34;;;;;;;6.70;6.00;;;17.00;99.90;;;;;;5021227;28;20232;-71
2023/08/30 08:11:00;;;;;;;6.63;6.00;;;17.00;99.90;;;;;;5023712;28;20359;-72
2023/08/30 08:13:25;;;;;;;7.73;6.07;;;17.10;99.90;;;;;;5017299;28;20220;-73
2023/08/30 08:15:51;;;;;;;8.67;6.80;;;17.10;99.90;;;;;;5007221;28;20224;-73
2023/08/30 08:18:17;;;;;;;7.20;6.50;;;17.10;99.90;;;;;;4994793;28;20292;-73
2023/08/30 08:20:43;;;;;;;6.90;6.20;;;17.10;99.90;;;;;;4993308;28;20232;-73
2023/08/30 08:23:08;;;;;;;7.97;6.60;;;17.20;99.90;;;;;;4987195;28;20281;-73
2023/08/30 08:25:34;;;;;;;15.73;6.37;;;17.20;99.90;;;;;;4986752;28;20236;-73
2023/08/30 08:28:00;;;;;;;12.60;7.40;;;17.20;99.90;;;;;;4996498;28;20216;-73
2023/08/30 08:30:26;;;;;;;7.60;6.73;;;17.20;99.90;;;;;;5020307;28;20232;-73
2023/08/30 08:32:51;;;;;;;8.00;6.67;;;17.20;99.90;;;;;;5024862;28;20235;-71
2023/08/30 08:35:17;;;;;;;10.63;7.00;;;17.30;99.90;;;;;;5036463;28;20243;-72
2023/08/30 08:37:43;;;;;;;8.73;6.67;;;17.30;99.90;;;;;;5021922;28;20329;-73
2023/08/30 08:40:09;;;;;;;7.13;6.43;;;17.40;99.90;;;;;;5040349;28;20227;-73
2023/08/30 08:42:36;;;;;;;10.83;7.63;;;17.40;99.90;;;;;;5052155;28;20683;-71
2023/08/30 08:45:05;;;;;;;8.43;6.00;;;17.50;99.90;;;;;;5020735;28;20462;-71
2023/08/30 08:47:31;;;;;;;7.77;6.57;;;17.50;99.90;;;;;;5048121;28;21064;-73
2023/08/30 08:49:58;;;;;;;7.53;6.67;;;17.60;99.90;;;;;;5055121;28;20473;-73
2023/08/30 08:52:24;;;;;;;8.30;6.67;;;17.70;99.90;;;;;;5026119;28;20544;-72
2023/08/30 08:54:51;;;;;;;12.80;7.00;;;17.90;99.90;;;;;;5009098;28;20502;-73
2023/08/30 08:57:18;;;;;;;8.83;7.33;;;17.90;99.90;;;;;;5002980;28;20224;-72
2023/08/30 08:59:44;;;;;;;8.20;6.20;;;18.00;99.90;;;;;;4972698;28;20478;-73
2023/08/30 09:02:13;;;;;;;7.60;6.63;;;18.10;99.90;;;;;;4994164;28;20477;-74
2023/08/30 09:04:39;;;;;;;9.30;6.13;;;18.20;99.90;;;;;;4999469;28;20380;-73
2023/08/30 09:07:05;;;;;;;11.73;7.40;;;18.30;99.90;;;;;;5000561;28;20458;-74
2023/08/30 09:09:31;;;;;;;7.57;6.37;;;18.40;99.90;;;;;;5010997;28;20555;-72
2023/08/30 09:11:56;;;;;;;9.23;6.93;;;18.60;99.90;;;;;;5019762;28;20234;-71
2023/08/30 09:14:22;;;;;;;7.53;6.83;;;18.70;99.90;;;;;;5023918;28;20281;-73
2023/08/30 09:17:00;;;;;;;8.40;6.40;;;18.80;99.90;;;;;;5020467;28;20215;-74
2023/08/30 09:19:26;;;;;;;6.90;6.17;;;18.90;99.90;;;;;;5049482;28;20226;-73
2023/08/30 09:21:56;;;;;;;5.90;5.30;;;19.00;99.90;;;;;;5024070;28;20465;-72
2023/08/30 09:24:22;;;;;;;7.60;5.90;;;19.00;99.90;;;;;;5037506;28;20236;-73
2023/08/30 09:26:52;;;;;;;6.40;5.80;;;19.20;99.90;;;;;;5018945;28;20474;-73
2023/08/30 09:29:19;;;;;;;6.57;5.83;;;19.40;99.90;;;;;;5051964;28;20585;-74
2023/08/30 09:31:45;;;;;;;7.10;6.13;;;19.40;99.90;;;;;;5004291;28;20516;-73
2023/08/30 09:34:11;;;;;;;7.50;5.63;;;19.60;99.90;;;;;;5009429;28;21000;-74
2023/08/30 09:36:41;;;;;;;6.97;6.27;;;19.80;99.90;;;;;;4974264;28;20437;-73
2023/08/30 09:39:09;;;;;;;6.83;6.07;;;19.90;99.90;;;;;;5019258;28;20951;-73
2023/08/30 09:41:35;;;;;;;8.17;6.47;;;20.10;99.90;;;;;;5015967;28;20566;-74
2023/08/30 09:44:11;;;;;;;6.13;5.53;;;20.20;99.90;;;;;;4993016;28;20478;-73
2023/08/30 09:46:56;;;;;;;8.30;6.90;;;20.10;99.90;;;;;;4988759;28;20557;-73
2023/08/30 09:49:26;;;;;;;6.83;6.13;;;20.30;99.90;;;;;;4986871;28;21404;-74
2023/08/30 09:51:53;;;;;;;7.83;5.87;;;20.40;99.90;;;;;;5004517;28;20909;-73
2023/08/30 09:54:20;;;;;;;6.37;5.50;;;20.40;99.90;;;;;;4976890;28;20473;-75
2023/08/30 09:56:47;;;;;;;6.57;5.93;;;20.40;99.90;;;;;;4988992;28;20469;-74
2023/08/30 09:59:17;;;;;;;6.67;5.53;;;20.50;99.90;;;;;;4991791;28;20482;-73
2023/08/30 10:01:44;;;;;;;6.40;5.57;;;20.70;99.90;;;;;;4986278;28;20590;-74
2023/08/30 10:04:10;;;;;;;5.57;5.07;;;20.80;99.90;;;;;;5008855;28;20486;-73
2023/08/30 10:06:39;;;;;;;7.10;5.23;;;20.90;99.90;;;;;;4999885;28;20470;-74
2023/08/30 10:09:07;;;;;;;5.07;4.57;;;21.20;99.90;;;;;;4993955;28;20474;-73
2023/08/30 10:11:35;;;;;;;5.77;5.20;;;21.30;99.90;;;;;;4990091;28;20490;-73
2023/08/30 10:14:06;;;;;;;5.33;4.83;;;21.30;99.90;;;;;;5003610;28;20470;-74
2023/08/30 10:16:58;;;;;;;5.70;5.20;;;21.40;99.90;;;;;;4970201;28;20486;-74
2023/08/30 10:19:26;;;;;;;5.57;4.70;;;21.50;99.90;;;;;;4994997;28;21348;-74
2023/08/30 10:22:15;;;;;;;4.60;4.20;;;21.60;99.90;;;;;;4991375;28;21196;-74
2023/08/30 10:25:10;;;;;;;5.47;4.87;;;21.70;99.90;;;;;;4999910;28;20482;-74
2023/08/30 10:27:38;;;;;;;4.60;4.17;;;21.50;99.90;;;;;;4973046;28;20564;-73
2023/08/30 10:30:06;;;;;;;7.77;5.20;;;21.40;99.90;;;;;;5020438;28;20601;-73
2023/08/30 10:32:38;;;;;;;6.33;5.37;;;21.30;99.90;;;;;;4973646;28;20877;-73
2023/08/30 10:35:03;;;;;;;6.57;4.93;;;21.20;99.90;;;;;;4994561;28;20476;-73
2023/08/30 10:37:30;;;;;;;5.60;4.93;;;21.30;99.90;;;;;;4990764;28;20478;-74
2023/08/30 10:40:05;;;;;;;6.07;5.57;;;21.40;99.90;;;;;;4975844;28;20227;-74
2023/08/30 10:42:32;;;;;;;5.20;4.40;;;21.50;99.90;;;;;;4988517;28;21223;-73
2023/08/30 10:45:04;;;;;;;5.10;4.43;;;21.70;99.90;;;;;;4994787;28;20478;-74
2023/08/30 10:47:38;;;;;;;6.00;5.40;;;21.80;99.90;;;;;;5014988;28;20755;-75
2023/08/30 10:50:09;;;;;;;6.50;4.90;;;21.90;99.90;;;;;;4993148;28;21212;-74
2023/08/30 10:52:35;;;;;;;4.73;4.33;;;22.20;99.90;;;;;;5018901;28;20454;-74
2023/08/30 10:55:08;;;;;;;4.63;4.07;;;22.20;99.90;;;;;;5018758;28;20571;-74
2023/08/30 10:57:34;;;;;;;4.30;3.90;;;21.90;99.90;;;;;;5020536;28;20600;-74
2023/08/30 11:00:19;;;;;;;3.80;3.40;;;21.70;99.90;;;;;;5018538;28;21030;-74
2023/08/30 11:02:49;;;;;;;4.73;4.17;;;21.60;99.90;;;;;;5023871;28;20492;-74
2023/08/30 11:05:19;;;;;;;4.10;3.60;;;21.60;99.90;;;;;;4995386;28;20469;-74
2023/08/30 11:07:46;;;;;;;4.50;3.70;;;21.70;99.90;;;;;;4992373;28;21453;-75
2023/08/30 11:10:13;;;;;;;6.57;4.50;;;21.90;99.90;;;;;;4997207;28;20470;-74
2023/08/30 11:12:43;;;;;;;4.80;4.10;;;21.90;99.90;;;;;;4992889;28;20481;-74
2023/08/30 11:15:11;;;;;;;5.90;4.03;;;22.00;99.90;;;;;;4995277;28;20606;-73
2023/08/30 11:17:36;;;;;;;5.23;4.23;;;22.20;99.90;;;;;;5021678;28;20466;-75
2023/08/30 11:20:08;;;;;;;5.53;4.20;;;22.40;99.90;;;;;;4996622;28;20466;-74
2023/08/30 11:22:39;;;;;;;7.07;5.00;;;22.50;99.90;;;;;;4993996;28;20227;-74
2023/08/30 11:25:05;;;;;;;4.70;4.30;;;22.50;99.90;;;;;;5023179;27;20694;-74
2023/08/30 11:27:31;;;;;;;4.70;4.17;;;22.60;99.90;;;;;;4995684;28;20857;-74
2023/08/30 11:30:05;;;;;;;5.30;4.30;;;22.80;99.90;;;;;;5024037;28;20536;-75
2023/08/30 11:32:38;;;;;;;5.90;4.10;;;22.90;99.90;;;;;;5008696;28;20473;-74
2023/08/30 11:35:05;;;;;;;4.30;3.90;;;23.00;99.90;;;;;;5025916;28;20462;-74
2023/08/30 11:37:32;;;;;;;4.30;3.90;;;23.00;99.90;;;;;;5005286;28;20477;-74
2023/08/30 11:39:58;;;;;;;3.40;3.10;;;23.00;99.90;;;;;;5024521;27;20466;-73
2023/08/30 11:42:25;;;;;;;4.33;3.57;;;23.00;99.90;;;;;;5006486;28;20476;-74
2023/08/30 11:44:51;;;;;;;3.80;3.30;;;23.30;99.90;;;;;;4997234;28;20462;-74
2023/08/30 11:47:24;;;;;;;4.33;4.03;;;23.40;99.90;;;;;;5006706;28;20465;-75
2023/08/30 11:49:53;;;;;;;3.93;3.53;;;23.30;99.90;;;;;;4992797;28;20470;-75
2023/08/30 11:52:20;;;;;;;3.90;3.60;;;23.50;99.90;;;;;;5008095;28;20516;-75
2023/08/30 11:54:47;;;;;;;6.20;3.00;;;23.40;99.90;;;;;;5005500;28;20870;-75
2023/08/30 11:57:13;;;;;;;4.27;3.13;;;23.50;99.90;;;;;;5021668;28;20466;-75
2023/08/30 11:59:39;;;;;;;4.83;4.00;;;23.70;99.90;;;;;;4990699;28;20604;-74
2023/08/30 12:02:07;;;;;;;4.13;3.70;;;23.70;99.90;;;;;;4996934;28;20363;-74
2023/08/30 12:04:39;;;;;;;4.73;4.13;;;23.70;99.90;;;;;;5004075;28;20257;-74
2023/08/30 12:07:05;;;;;;;4.17;3.30;;;23.60;99.90;;;;;;4976251;28;20481;-75
2023/08/30 12:09:34;;;;;;;4.63;4.23;;;23.90;99.90;;;;;;5020141;28;20600;-75
2023/08/30 12:12:13;;;;;;;4.23;3.83;;;24.00;99.90;;;;;;4997422;28;20304;-75
2023/08/30 12:14:39;;;;;;;3.37;3.17;;;23.90;99.90;;;;;;4991814;28;20485;-74
2023/08/30 12:17:05;;;;;;;4.50;4.10;;;24.00;99.90;;;;;;4977779;28;20612;-74
2023/08/30 12:19:32;;;;;;;3.90;3.60;;;24.10;99.90;;;;;;4993156;28;20320;-74
2023/08/30 12:22:04;;;;;;;5.13;4.20;;;24.00;99.90;;;;;;5018608;28;20465;-75
2023/08/30 12:24:44;;;;;;;4.17;3.77;;;24.10;99.90;;;;;;4991986;28;20535;-74
2023/08/30 12:27:11;;;;;;;5.13;3.90;;;24.10;99.90;;;;;;5008834;28;20482;-74
2023/08/30 12:29:36;;;;;;;4.03;3.73;;;24.20;99.90;;;;;;4991244;28;20520;-74
2023/08/30 12:32:02;;;;;;;4.30;3.90;;;24.20;99.90;;;;;;4979426;28;20474;-75
2023/08/30 12:34:28;;;;;;;3.97;3.67;;;24.20;99.90;;;;;;5001479;28;20231;-74
2023/08/30 12:36:54;;;;;;;6.30;4.07;;;24.20;99.90;;;;;;5006658;28;21129;-74
2023/08/30 12:39:20;;;;;;;4.10;3.80;;;24.10;99.90;;;;;;4995461;28;20235;-74
2023/08/30 12:41:47;;;;;;;3.80;3.50;;;24.20;99.90;;;;;;4986297;28;21249;-75
2023/08/30 12:44:12;;;;;;;4.77;3.27;;;24.30;99.60;;;;;;5006547;28;20845;-75
2023/08/30 12:46:38;;;;;;;3.77;3.37;;;24.30;99.30;;;;;;5020968;28;20561;-76